createdAt,value
2018-05-07T00:00:18.045Z,96618
2018-05-07T00:02:46.951Z,96612
2018-05-07T00:05:15.827Z,96605
2018-05-07T00:07:44.695Z,96616
2018-05-07T00:10:13.614Z,96606
2018-05-07T00:12:42.491Z,96610
2018-05-07T00:15:11.375Z,96608
2018-05-07T00:17:40.288Z,96612
2018-05-07T00:20:09.211Z,96619
2018-05-07T00:22:38.113Z,96610
2018-05-07T00:25:07.719Z,96620
2018-05-07T00:27:36.579Z,96616
2018-05-07T00:30:05.473Z,96610
2018-05-07T00:32:34.343Z,96609
2018-05-07T00:35:03.280Z,96605
2018-05-07T00:37:32.920Z,96612
2018-05-07T00:40:01.791Z,96620
2018-05-07T00:42:30.696Z,96614
2018-05-07T00:44:59.559Z,96613
2018-05-07T00:47:28.443Z,96617
2018-05-07T00:49:57.340Z,96609
2018-05-07T00:52:26.984Z,96613
2018-05-07T00:55:13.449Z,96615
2018-05-07T00:57:42.336Z,96611
2018-05-07T01:00:11.248Z,96618
2018-05-07T01:02:40.123Z,96618
2018-05-07T01:05:09.012Z,96620
2018-05-07T01:07:38.724Z,96629
2018-05-07T01:10:07.644Z,96635
2018-05-07T01:12:36.502Z,96619
2018-05-07T01:15:05.522Z,96616
2018-05-07T01:17:34.327Z,96620
2018-05-07T01:20:03.220Z,96616
2018-05-07T01:22:32.127Z,96617
2018-05-07T01:25:00.995Z,96619
2018-05-07T01:27:29.863Z,96618
2018-05-07T01:29:58.783Z,96612
2018-05-07T01:32:28.416Z,96615
2018-05-07T01:34:57.283Z,96611
2018-05-07T01:37:26.179Z,96613
2018-05-07T01:39:55.061Z,96623
2018-05-07T01:42:23.929Z,96619
2018-05-07T01:44:52.830Z,96622
2018-05-07T01:47:21.688Z,96610
2018-05-07T01:49:50.583Z,96623
2018-05-07T01:52:19.479Z,96613
2018-05-07T01:54:49.115Z,96613
2018-05-07T01:57:17.989Z,96600
2018-05-07T01:59:46.894Z,96608
2018-05-07T02:02:15.759Z,96609
2018-05-07T02:04:44.632Z,96612
2018-05-07T02:07:13.525Z,96602
2018-05-07T02:09:42.396Z,96603
2018-05-07T02:12:11.286Z,96606
2018-05-07T02:14:40.936Z,96608
2018-05-07T02:17:09.803Z,96614
2018-05-07T02:19:38.695Z,96614
2018-05-07T02:22:07.588Z,96604
2018-05-07T02:24:36.493Z,96598
2018-05-07T02:27:05.368Z,96605
2018-05-07T02:29:34.231Z,96604
2018-05-07T02:32:03.883Z,96601
2018-05-07T02:34:32.752Z,96596
2018-05-07T02:37:01.678Z,96596
2018-05-07T02:39:30.551Z,96596
2018-05-07T02:42:00.171Z,96589
2018-05-07T02:44:29.058Z,96593
2018-05-07T02:46:57.935Z,96585
2018-05-07T02:49:26.801Z,96587
2018-05-07T02:51:55.699Z,96596
2018-05-07T02:54:24.580Z,96593
2018-05-07T02:56:53.444Z,96591
2018-05-07T02:59:22.332Z,96593
2018-05-07T03:01:51.206Z,96589
2018-05-07T03:04:20.077Z,96592
2018-05-07T03:06:48.981Z,96593
2018-05-07T03:09:18.616Z,96591
2018-05-07T03:11:47.480Z,96584
2018-05-07T03:14:16.359Z,96587
2018-05-07T03:16:45.225Z,96588
2018-05-07T03:19:14.104Z,96591
2018-05-07T03:21:42.983Z,96587
2018-05-07T03:24:11.887Z,96583
2018-05-07T03:26:40.806Z,96582
2018-05-07T03:29:09.673Z,96579
2018-05-07T03:31:39.321Z,96583
2018-05-07T03:34:08.199Z,96575
2018-05-07T03:36:37.088Z,96569
2018-05-07T03:39:05.990Z,96574
2018-05-07T03:41:35.631Z,96568
2018-05-07T03:44:04.508Z,96573
2018-05-07T03:46:33.433Z,96576
2018-05-07T03:49:03.067Z,96570
2018-05-07T03:51:31.942Z,96578
2018-05-07T03:54:00.831Z,96572
2018-05-07T03:56:29.685Z,96565
2018-05-07T03:58:58.568Z,96566
2018-05-07T04:01:27.447Z,96574
2018-05-07T04:03:56.324Z,96569
2018-05-07T04:06:25.202Z,96575
2018-05-07T04:08:54.083Z,96570
2018-05-07T04:11:22.971Z,96573
2018-05-07T04:13:51.947Z,96569
2018-05-07T04:16:38.507Z,96572
2018-05-07T04:19:25.019Z,96575
2018-05-07T04:22:11.465Z,96572
2018-05-07T04:24:40.350Z,96576
2018-05-07T04:27:09.215Z,96562
2018-05-07T04:29:38.122Z,96570
2018-05-07T04:32:06.992Z,96577
2018-05-07T04:34:35.876Z,96586
2018-05-07T04:37:04.831Z,96580
2018-05-07T04:39:33.748Z,96587
2018-05-07T04:42:03.387Z,96580
2018-05-07T04:44:32.283Z,96592
2018-05-07T04:47:01.155Z,96600
2018-05-07T04:49:30.031Z,96598
2018-05-07T04:51:58.949Z,96599
2018-05-07T04:54:28.602Z,96601
2018-05-07T04:56:57.490Z,96611
2018-05-07T04:59:26.379Z,96598
2018-05-07T05:01:57.011Z,96595
2018-05-07T05:04:25.940Z,96607
2018-05-07T05:06:54.817Z,96607
2018-05-07T05:09:23.747Z,96609
2018-05-07T05:11:52.659Z,96607
2018-05-07T05:14:21.533Z,96604
2018-05-07T05:16:50.399Z,96603
2018-05-07T05:19:19.468Z,96616
2018-05-07T05:21:48.289Z,96609
2018-05-07T05:24:17.167Z,96610
2018-05-07T05:26:46.056Z,96611
2018-05-07T05:29:15.683Z,96608
2018-05-07T05:31:44.559Z,96601
2018-05-07T05:34:13.447Z,96607
2018-05-07T05:36:42.328Z,96606
2018-05-07T05:39:11.240Z,96605
2018-05-07T05:41:40.171Z,96602
2018-05-07T05:44:09.072Z,96606
2018-05-07T05:46:37.974Z,96618
2018-05-07T05:49:06.908Z,96616
2018-05-07T05:51:35.781Z,96613
2018-05-07T05:54:04.664Z,96605
2018-05-07T05:56:33.563Z,96613
2018-05-07T05:59:03.223Z,96603
2018-05-07T06:01:32.131Z,96607
2018-05-07T06:04:01.845Z,96601
2018-05-07T06:06:31.475Z,96612
2018-05-07T06:09:00.357Z,96609
2018-05-07T06:11:29.280Z,96604
2018-05-07T06:13:58.155Z,96608
2018-05-07T06:16:27.038Z,96607
2018-05-07T06:18:55.937Z,96613
2018-05-07T06:21:24.811Z,96615
2018-05-07T06:23:53.679Z,96611
2018-05-07T06:26:22.605Z,96619
2018-05-07T06:28:51.479Z,96625
2018-05-07T06:31:20.355Z,96625
2018-05-07T06:33:49.265Z,96630
2018-05-07T06:36:18.168Z,96626
2018-05-07T06:38:47.078Z,96630
2018-05-07T06:41:16.748Z,96630
2018-05-07T06:43:45.667Z,96619
2018-05-07T06:46:15.376Z,96627
2018-05-07T06:48:44.308Z,96621
2018-05-07T06:51:13.220Z,96622
2018-05-07T06:53:42.323Z,96621
2018-05-07T06:56:11.193Z,96626
2018-05-07T06:58:40.138Z,96630
2018-05-07T07:01:09.775Z,96629
2018-05-07T07:03:38.647Z,96627
2018-05-07T07:06:07.583Z,96631
2018-05-07T07:08:37.304Z,96628
2018-05-07T07:11:06.919Z,96636
2018-05-07T07:13:35.806Z,96636
2018-05-07T07:16:04.710Z,96637
2018-05-07T07:18:34.383Z,96638
2018-05-07T07:21:03.305Z,96638
2018-05-07T07:23:32.191Z,96638
2018-05-07T07:26:01.118Z,96639
2018-05-07T07:28:30.790Z,96646
2018-05-07T07:30:59.701Z,96640
2018-05-07T07:33:29.351Z,96636
2018-05-07T07:35:58.229Z,96641
2018-05-07T07:38:27.128Z,96646
2018-05-07T07:40:56.771Z,96650
2018-05-07T07:43:25.688Z,96647
2018-05-07T07:45:54.561Z,96644
2018-05-07T07:48:23.464Z,96641
2018-05-07T07:50:53.124Z,96633
2018-05-07T07:53:21.993Z,96642
2018-05-07T07:55:50.907Z,96644
2018-05-07T07:58:20.549Z,96635
2018-05-07T08:00:49.451Z,96637
2018-05-07T08:03:18.332Z,96634
2018-05-07T08:05:47.213Z,96635
2018-05-07T08:08:16.884Z,96632
2018-05-07T08:10:45.775Z,96625
2018-05-07T08:13:14.692Z,96632
2018-05-07T08:15:43.571Z,96633
2018-05-07T08:18:12.439Z,96627
2018-05-07T08:20:41.341Z,96634
2018-05-07T08:23:10.255Z,96629
2018-05-07T08:25:39.119Z,96630
2018-05-07T08:28:07.995Z,96635
2018-05-07T08:30:37.713Z,96639
2018-05-07T08:33:07.372Z,96637
2018-05-07T08:35:36.247Z,96634
2018-05-07T08:38:05.169Z,96626
2018-05-07T08:40:34.036Z,96629
2018-05-07T08:43:02.915Z,96624
2018-05-07T08:45:31.824Z,96628
2018-05-07T08:48:00.712Z,96620
2018-05-07T08:50:29.613Z,96623
2018-05-07T08:52:58.532Z,96611
2018-05-07T08:55:28.178Z,96614
2018-05-07T08:57:57.075Z,96622
2018-05-07T09:00:25.947Z,96616
2018-05-07T09:02:55.627Z,96622
2018-05-07T09:05:25.263Z,96616
2018-05-07T09:07:54.174Z,96615
2018-05-07T09:10:23.102Z,96617
2018-05-07T09:12:51.986Z,96625
2018-05-07T09:15:20.879Z,96619
2018-05-07T09:17:49.756Z,96622
2018-05-07T09:20:18.650Z,96622
2018-05-07T09:22:47.555Z,96618
2018-05-07T09:25:17.192Z,96613
2018-05-07T09:27:46.107Z,96608
2018-05-07T09:30:14.972Z,96610
2018-05-07T09:32:43.848Z,96619
2018-05-07T09:35:12.745Z,96615
2018-05-07T09:37:42.401Z,96611
2018-05-07T09:40:11.271Z,96604
2018-05-07T09:42:40.142Z,96603
2018-05-07T09:45:09.039Z,96602
2018-05-07T09:47:37.914Z,96611
2018-05-07T09:50:06.784Z,96607
2018-05-07T09:52:35.683Z,96606
2018-05-07T09:55:05.388Z,96608
2018-05-07T09:57:34.302Z,96605
2018-05-07T10:00:03.232Z,96603
2018-05-07T10:02:32.904Z,96599
2018-05-07T10:05:01.777Z,96592
2018-05-07T10:07:30.672Z,96599
2018-05-07T10:10:00.307Z,96595
2018-05-07T10:12:29.200Z,96601
2018-05-07T10:14:58.068Z,96592
2018-05-07T10:17:26.980Z,96591
2018-05-07T10:19:56.616Z,96595
2018-05-07T10:22:25.487Z,96590
2018-05-07T10:24:54.384Z,96589
2018-05-07T10:27:23.306Z,96585
2018-05-07T10:29:53.020Z,96582
2018-05-07T10:32:21.840Z,96579
2018-05-07T10:34:50.727Z,96579
2018-05-07T10:37:19.619Z,96581
2018-05-07T10:39:49.278Z,96569
2018-05-07T10:42:18.155Z,96584
2018-05-07T10:44:47.028Z,96575
2018-05-07T10:47:15.943Z,96575
2018-05-07T10:49:45.580Z,96583
2018-05-07T10:52:14.472Z,96575
2018-05-07T10:54:43.336Z,96571
2018-05-07T10:57:12.235Z,96568
2018-05-07T10:59:41.099Z,96569
2018-05-07T11:02:10.015Z,96568
2018-05-07T11:04:39.691Z,96568
2018-05-07T11:07:09.333Z,96565
2018-05-07T11:09:38.207Z,96555
2018-05-07T11:12:07.129Z,96557
2018-05-07T11:14:36.763Z,96555
2018-05-07T11:17:05.656Z,96553
2018-05-07T11:19:34.533Z,96548
2018-05-07T11:22:03.427Z,96545
2018-05-07T11:24:32.331Z,96540
2018-05-07T11:27:01.967Z,96537
2018-05-07T11:29:30.907Z,96539
2018-05-07T11:31:59.786Z,96539
2018-05-07T11:34:28.650Z,96541
2018-05-07T11:36:58.299Z,96539
2018-05-07T11:39:27.189Z,96541
2018-05-07T11:41:56.088Z,96540
2018-05-07T11:44:25.734Z,96533
2018-05-07T11:46:54.624Z,96536
2018-05-07T11:49:23.499Z,96526
2018-05-07T11:51:52.398Z,96526
2018-05-07T11:54:21.283Z,96529
2018-05-07T11:56:50.928Z,96525
2018-05-07T11:59:19.816Z,96521
2018-05-07T12:01:48.687Z,96516
2018-05-07T12:04:17.600Z,96512
2018-05-07T12:06:47.249Z,96509
2018-05-07T12:09:16.140Z,96511
2018-05-07T12:11:45.017Z,96516
2018-05-07T12:14:13.939Z,96508
2018-05-07T12:16:42.846Z,96501
2018-05-07T12:19:11.747Z,96505
2018-05-07T12:21:40.670Z,96484
2018-05-07T12:24:09.543Z,96487
2018-05-07T12:26:38.419Z,96489
2018-05-07T12:29:07.352Z,96490
2018-05-07T12:31:37.113Z,96484
2018-05-07T12:34:05.916Z,96480
2018-05-07T12:36:35.012Z,96478
2018-05-07T12:39:04.709Z,96463
2018-05-07T12:41:34.403Z,96457
2018-05-07T12:44:04.351Z,96458
2018-05-07T12:46:33.223Z,96460
2018-05-07T12:49:02.085Z,96461
2018-05-07T12:51:30.975Z,96455
2018-05-07T12:53:59.915Z,96461
2018-05-07T12:56:28.871Z,96450
2018-05-07T12:58:58.608Z,96449
2018-05-07T13:01:27.440Z,96431
2018-05-07T13:03:57.224Z,96440
2018-05-07T13:06:26.090Z,96445
2018-05-07T13:08:54.964Z,96433
2018-05-07T13:11:23.862Z,96430
2018-05-07T13:13:53.491Z,96431
2018-05-07T13:16:22.405Z,96428
2018-05-07T13:18:51.275Z,96423
2018-05-07T13:21:20.143Z,96416
2018-05-07T13:23:49.035Z,96413
2018-05-07T13:26:17.915Z,96417
2018-05-07T13:28:46.803Z,96413
2018-05-07T13:31:16.475Z,96413
2018-05-07T13:33:45.356Z,96406
2018-05-07T13:36:14.244Z,96400
2018-05-07T13:38:43.899Z,96406
2018-05-07T13:41:12.763Z,96405
2018-05-07T13:43:41.656Z,96393
2018-05-07T13:46:10.522Z,96397
2018-05-07T13:48:39.416Z,96393
2018-05-07T13:51:08.330Z,96388
2018-05-07T13:53:37.989Z,96387
2018-05-07T13:56:06.903Z,96384
2018-05-07T13:58:35.804Z,96388
2018-05-07T14:01:04.670Z,96387
2018-05-07T14:03:33.576Z,96380
2018-05-07T14:06:06.191Z,96373
2018-05-07T14:08:35.167Z,96370
2018-05-07T14:11:03.992Z,96374
2018-05-07T14:13:32.860Z,96374
2018-05-07T14:16:01.727Z,96363
2018-05-07T14:18:30.620Z,96362
2018-05-07T14:20:59.491Z,96368
2018-05-07T14:23:28.387Z,96353
2018-05-07T14:25:58.017Z,96367
2018-05-07T14:28:26.913Z,96354
2018-05-07T14:30:55.805Z,96358
2018-05-07T14:33:24.718Z,96351
2018-05-07T14:35:53.636Z,96342
2018-05-07T14:38:22.514Z,96356
2018-05-07T14:40:51.391Z,96341
2018-05-07T14:43:20.304Z,96343
2018-05-07T14:45:49.948Z,96337
2018-05-07T14:48:18.841Z,96332
2018-05-07T14:50:47.759Z,96335
2018-05-07T14:53:17.403Z,96328
2018-05-07T14:55:46.364Z,96334
2018-05-07T14:58:15.988Z,96335
2018-05-07T15:00:44.892Z,96332
2018-05-07T15:03:14.556Z,96326
2018-05-07T15:05:43.427Z,96327
2018-05-07T15:08:12.312Z,96337
2018-05-07T15:10:41.231Z,96324
2018-05-07T15:13:10.091Z,96319
2018-05-07T15:15:39.778Z,96321
2018-05-07T15:18:08.640Z,96315
2018-05-07T15:20:37.509Z,96310
2018-05-07T15:23:06.404Z,96320
2018-05-07T15:25:36.057Z,96304
2018-05-07T15:28:04.957Z,96309
2018-05-07T15:30:36.699Z,96306
2018-05-07T15:33:05.591Z,96308
2018-05-07T15:35:35.223Z,96312
2018-05-07T15:38:04.143Z,96309
2018-05-07T15:40:33.028Z,96306
2018-05-07T15:43:02.684Z,96301
2018-05-07T15:45:31.596Z,96305
2018-05-07T15:48:01.234Z,96301
2018-05-07T15:50:41.411Z,96289
2018-05-07T15:53:10.562Z,96294
2018-05-07T15:55:39.481Z,96294
2018-05-07T15:58:09.155Z,96294
2018-05-07T16:00:38.077Z,96289
2018-05-07T16:03:06.988Z,96289
2018-05-07T16:05:35.859Z,96286
2018-05-07T16:08:04.747Z,96285
2018-05-07T16:10:33.613Z,96271
2018-05-07T16:13:02.499Z,96269
2018-05-07T16:15:31.456Z,96269
2018-05-07T16:18:00.309Z,96269
2018-05-07T16:20:29.271Z,96274
2018-05-07T16:22:58.245Z,96271
2018-05-07T16:25:27.205Z,96265
2018-05-07T16:27:57.163Z,96272
2018-05-07T16:30:26.055Z,96266
2018-05-07T16:32:54.927Z,96264
2018-05-07T16:35:23.828Z,96263
2018-05-07T16:37:53.458Z,96260
2018-05-07T16:40:22.334Z,96266
2018-05-07T16:42:51.397Z,96261
2018-05-07T16:45:20.195Z,96259
2018-05-07T16:47:49.112Z,96257
2018-05-07T16:50:17.986Z,96249
2018-05-07T16:52:46.920Z,96254
2018-05-07T16:55:15.811Z,96254
2018-05-07T16:57:44.683Z,96249
2018-05-07T17:00:13.591Z,96249
2018-05-07T17:02:42.463Z,96250
2018-05-07T17:05:12.163Z,96244
2018-05-07T17:07:41.828Z,96251
2018-05-07T17:10:10.741Z,96245
2018-05-07T17:12:40.379Z,96245
2018-05-07T17:15:09.255Z,96248
2018-05-07T17:17:38.151Z,96242
2018-05-07T17:20:07.019Z,96248
2018-05-07T17:22:35.887Z,96249
2018-05-07T17:25:04.831Z,96255
2018-05-07T17:27:33.708Z,96250
2018-05-07T17:30:02.629Z,96249
2018-05-07T17:32:32.431Z,96258
2018-05-07T17:35:01.346Z,96252
2018-05-07T17:37:30.262Z,96254
2018-05-07T17:39:59.151Z,96251
2018-05-07T17:42:28.863Z,96256
2018-05-07T17:45:16.163Z,96250
2018-05-07T17:50:54.031Z,96250
2018-05-07T17:53:22.976Z,96260
2018-05-07T17:55:51.886Z,96260
2018-05-07T17:58:20.763Z,96256
2018-05-07T18:00:49.671Z,96251
2018-05-07T18:03:18.623Z,96248
2018-05-07T18:05:47.504Z,96253
2018-05-07T18:08:17.177Z,96251
2018-05-07T18:10:46.155Z,96240
2018-05-07T18:13:15.899Z,96242
2018-05-07T18:15:44.776Z,96238
2018-05-07T18:18:13.662Z,96248
2018-05-07T18:20:42.559Z,96246
2018-05-07T18:23:11.480Z,96241
2018-05-07T18:25:41.231Z,96240
2018-05-07T18:28:10.107Z,96243
2018-05-07T18:30:38.983Z,96248
2018-05-07T18:33:07.896Z,96251
2018-05-07T18:35:37.531Z,96259
2018-05-07T18:38:06.456Z,96255
2018-05-07T18:40:36.103Z,96263
2018-05-07T18:43:04.977Z,96259
2018-05-07T18:45:33.933Z,96255
2018-05-07T18:48:02.999Z,96259
2018-05-07T18:50:31.875Z,96264
2018-05-07T18:53:00.788Z,96268
2018-05-07T18:55:29.679Z,96265
2018-05-07T18:57:58.591Z,96271
2018-05-07T19:00:28.417Z,96273
2018-05-07T19:02:57.406Z,96274
2018-05-07T19:05:26.531Z,96270
2018-05-07T19:07:56.353Z,96275
2018-05-07T19:10:25.225Z,96283
2018-05-07T19:12:54.110Z,96282
2018-05-07T19:15:23.013Z,96286
2018-05-07T19:17:51.881Z,96275
2018-05-07T19:20:20.781Z,96280
2018-05-07T19:22:49.662Z,96286
2018-05-07T19:25:18.610Z,96290
2018-05-07T19:27:47.518Z,96300
2018-05-07T19:30:16.475Z,96300
2018-05-07T19:32:46.185Z,96304
2018-05-07T19:35:15.091Z,96305
2018-05-07T19:37:44.012Z,96306
2018-05-07T19:40:12.887Z,96311
2018-05-07T19:42:41.756Z,96317
2018-05-07T19:45:10.663Z,96319
2018-05-07T19:47:39.540Z,96327
2018-05-07T19:50:08.564Z,96321
2018-05-07T19:52:37.440Z,96329
2018-05-07T19:55:06.331Z,96320
2018-05-07T19:57:35.256Z,96321
2018-05-07T20:00:04.944Z,96326
2018-05-07T20:02:34.631Z,96321
2018-05-07T20:05:04.295Z,96325
2018-05-07T20:07:33.214Z,96331
2018-05-07T20:10:03.012Z,96328
2018-05-07T20:12:32.680Z,96329
2018-05-07T20:15:01.597Z,96328
2018-05-07T20:17:30.491Z,96323
2018-05-07T20:20:00.143Z,96327
2018-05-07T20:22:29.064Z,96322
2018-05-07T20:24:58.014Z,96326
2018-05-07T20:27:26.903Z,96327
2018-05-07T20:29:55.819Z,96328
2018-05-07T20:32:24.684Z,96332
2018-05-07T20:34:53.560Z,96339
2018-05-07T20:37:22.456Z,96331
2018-05-07T20:39:52.215Z,96329
2018-05-07T20:42:21.097Z,96325
2018-05-07T20:44:49.986Z,96326
2018-05-07T20:47:18.883Z,96329
2018-05-07T20:49:47.793Z,96328
2018-05-07T20:52:16.669Z,96312
2018-05-07T20:54:45.556Z,96326
2018-05-07T20:57:14.431Z,96328
2018-05-07T20:59:43.336Z,96320
2018-05-07T21:02:12.235Z,96320
2018-05-07T21:04:41.105Z,96326
2018-05-07T21:07:10.742Z,96315
2018-05-07T21:09:45.888Z,96314
2018-05-07T21:12:14.784Z,96312
2018-05-07T21:14:44.423Z,96314
2018-05-07T21:17:13.315Z,96320
2018-05-07T21:19:42.201Z,96311
2018-05-07T21:22:11.180Z,96316
2018-05-07T21:24:40.051Z,96314
2018-05-07T21:27:08.928Z,96314
2018-05-07T21:29:37.831Z,96310
2018-05-07T21:32:07.492Z,96310
2018-05-07T21:34:36.388Z,96312
2018-05-07T21:37:06.043Z,96307
2018-05-07T21:39:34.943Z,96311
2018-05-07T21:42:03.824Z,96305
2018-05-07T21:44:32.739Z,96303
2018-05-07T21:47:01.644Z,96298
2018-05-07T21:49:30.537Z,96300
2018-05-07T21:51:59.433Z,96293
2018-05-07T21:54:29.086Z,96293
2018-05-07T21:56:57.996Z,96292
2018-05-07T21:59:27.663Z,96289
2018-05-07T22:01:56.559Z,96286
2018-05-07T22:04:25.481Z,96280
2018-05-07T22:06:54.364Z,96286
2018-05-07T22:09:23.239Z,96279
2018-05-07T22:11:57.675Z,96272
2018-05-07T22:14:26.555Z,96273
2018-05-07T22:16:55.475Z,96264
2018-05-07T22:19:24.356Z,96268
2018-05-07T22:21:53.240Z,96266
2018-05-07T22:24:22.177Z,96272
2018-05-07T22:26:51.818Z,96262
2018-05-07T22:29:20.691Z,96266
2018-05-07T22:31:49.616Z,96261
2018-05-07T22:34:18.509Z,96268
2018-05-07T22:36:47.400Z,96267
2018-05-07T22:39:16.275Z,96263
2018-05-07T22:41:45.175Z,96272
2018-05-07T22:44:14.092Z,96265
2018-05-07T22:46:43.734Z,96265
2018-05-07T22:49:12.671Z,96260
2018-05-07T22:51:41.572Z,96262
2018-05-07T22:54:10.449Z,96251
2018-05-07T22:56:39.348Z,96260
2018-05-07T22:59:08.301Z,96253
2018-05-07T23:01:37.204Z,96248
2018-05-07T23:04:06.099Z,96243
2018-05-07T23:06:35.744Z,96248
2018-05-07T23:11:54.352Z,96246
2018-05-07T23:14:23.197Z,96239
2018-05-07T23:16:52.078Z,96236
2018-05-07T23:19:20.988Z,96230
2018-05-07T23:21:49.860Z,96220
2018-05-07T23:24:18.739Z,96214
2018-05-07T23:26:47.669Z,96216
2018-05-07T23:29:16.559Z,96207
2018-05-07T23:31:46.232Z,96210
2018-05-07T23:34:15.123Z,96191
2018-05-07T23:36:44.768Z,96192
2018-05-07T23:39:13.683Z,96180
2018-05-07T23:41:42.560Z,96185
2018-05-07T23:44:11.435Z,96180
2018-05-07T23:46:40.330Z,96180
2018-05-07T23:49:09.968Z,96180
2018-05-07T23:51:38.881Z,96177
2018-05-07T23:54:07.766Z,96173
2018-05-07T23:56:37.399Z,96181
2018-05-07T23:59:06.335Z,96171
